Millersport, Ohio
Current Conditions -  °F | °C
As of 5:54 PM on Friday 31 Oct 2014 (Local Time) from KVTA Reporting Station
Light Rain Light Rain  
Wind Chill: 44°   Ceiling: 2100
Heat Index: 44°   Visibility: 4mi
Dew Point: 40°   Wind: 0mph
Humidity: 85%   Direction: NA
Pressure: 29.85"   Gusts: NA
Location:  39.9°N, 82.53°W
Report Text: KVTA 312154Z AUTO 00000KT 4SM -RA BR FEW014 OVC021 07/04 A2985 RMK AO2 SLP113 P0002 T00670044
Loading
Personal Weather Stations






























Interactive Weather Map
Tropical Storm Tracking
New forecast layout! Learn more

10-Day Weather Forecast

Advertisements
Track Severe Weather on mobile